Time;durP1;ratioP1;P1;durP2;ratioP2;P2;SDS_P1;SDS_P2;PMS_P1;PMS_P2;Temp;Humidity;BMP_temperature;BMP_pressure;BME280_temperature;BME280_humidity;BME280_pressure;Samples;Min_cycle;Max_cycle;Signal;HPM_P1;HPM_P2
2022/08/19 00:01:15;;;;;;;10.60;8.77;;;19.40;99.90;;;;;;5012315;28;20569;-59
2022/08/19 00:03:44;;;;;;;10.27;9.30;;;19.30;99.90;;;;;;5012346;28;20903;-59
2022/08/19 00:06:11;;;;;;;9.60;8.70;;;19.30;99.90;;;;;;5012590;28;20466;-59
2022/08/19 00:08:38;;;;;;;13.40;9.27;;;19.30;99.90;;;;;;5012111;28;20466;-59
2022/08/19 00:11:07;;;;;;;9.03;8.10;;;19.30;99.90;;;;;;5011816;28;20482;-61
2022/08/19 00:13:34;;;;;;;9.53;8.53;;;19.30;99.90;;;;;;5013182;28;20450;-59
2022/08/19 00:16:02;;;;;;;15.40;8.83;;;19.30;99.90;;;;;;5011846;28;20481;-59
2022/08/19 00:18:30;;;;;;;9.80;8.77;;;19.30;99.90;;;;;;5011439;28;20474;-60
2022/08/19 00:20:59;;;;;;;12.40;8.43;;;19.30;99.90;;;;;;5013112;28;20559;-59
2022/08/19 00:23:27;;;;;;;10.93;9.20;;;19.20;99.90;;;;;;5013133;28;20492;-59
2022/08/19 00:25:54;;;;;;;8.20;6.93;;;19.20;99.90;;;;;;5014036;28;20466;-59
2022/08/19 00:28:21;;;;;;;10.73;8.00;;;19.20;99.90;;;;;;5015497;28;20461;-58
2022/08/19 00:30:48;;;;;;;8.33;7.43;;;19.20;99.90;;;;;;5015498;28;20941;-60
2022/08/19 00:33:16;;;;;;;8.97;7.57;;;19.20;99.90;;;;;;5016689;28;20549;-59
2022/08/19 00:35:43;;;;;;;9.50;7.80;;;19.10;99.90;;;;;;5016191;28;20528;-59
2022/08/19 00:38:12;;;;;;;8.73;7.23;;;19.10;99.90;;;;;;5015973;28;20917;-59
2022/08/19 00:40:39;;;;;;;9.23;8.10;;;19.10;99.90;;;;;;5016038;28;20914;-58
2022/08/19 00:43:10;;;;;;;9.67;8.40;;;19.00;99.90;;;;;;5016237;28;20811;-59
2022/08/19 00:45:37;;;;;;;8.77;7.87;;;19.00;99.90;;;;;;5015290;28;20465;-61
2022/08/19 00:48:05;;;;;;;8.63;7.73;;;18.90;99.90;;;;;;5015644;28;20470;-58
2022/08/19 00:50:33;;;;;;;9.77;8.07;;;18.90;99.90;;;;;;5015466;28;20462;-61
2022/08/19 00:53:03;;;;;;;7.73;7.03;;;18.90;99.90;;;;;;5016234;28;20520;-60
2022/08/19 00:55:33;;;;;;;9.90;8.03;;;18.80;99.90;;;;;;5014605;28;20556;-60
2022/08/19 00:58:04;;;;;;;11.97;9.53;;;18.80;99.90;;;;;;5005352;28;20453;-59
2022/08/19 01:00:36;;;;;;;9.40;7.60;;;18.80;99.90;;;;;;5015873;28;20580;-59
2022/08/19 01:03:04;;;;;;;11.40;8.77;;;18.70;99.90;;;;;;5015726;28;20454;-59
2022/08/19 01:05:31;;;;;;;9.47;8.00;;;18.70;99.90;;;;;;5015546;28;20464;-59
2022/08/19 01:08:01;;;;;;;9.37;8.50;;;18.70;99.90;;;;;;5015988;28;20464;-58
2022/08/19 01:10:33;;;;;;;10.57;8.90;;;18.60;99.90;;;;;;5015367;28;20457;-58
2022/08/19 01:13:02;;;;;;;10.70;8.77;;;18.60;99.90;;;;;;5015409;28;20469;-59
2022/08/19 01:15:33;;;;;;;9.03;8.00;;;18.60;99.90;;;;;;5015438;28;20477;-59
2022/08/19 01:18:06;;;;;;;11.20;8.00;;;18.60;99.90;;;;;;5016280;28;20929;-59
2022/08/19 01:20:34;;;;;;;11.17;9.33;;;18.60;99.90;;;;;;5015464;28;20461;-58
2022/08/19 01:23:04;;;;;;;10.00;9.00;;;18.50;99.90;;;;;;5013502;28;20472;-61
2022/08/19 01:25:35;;;;;;;9.60;8.10;;;18.50;99.90;;;;;;5015348;28;21022;-58
2022/08/19 01:28:03;;;;;;;9.37;8.47;;;18.50;99.90;;;;;;5015149;28;20913;-58
2022/08/19 01:30:34;;;;;;;9.70;8.37;;;18.50;99.90;;;;;;5014637;28;20461;-59
2022/08/19 01:33:01;;;;;;;13.77;9.57;;;18.50;99.90;;;;;;5012935;28;20468;-59
2022/08/19 01:35:32;;;;;;;12.27;9.17;;;18.50;99.90;;;;;;5014982;28;20485;-59
2022/08/19 01:38:07;;;;;;;10.97;9.33;;;18.50;99.90;;;;;;5013201;28;20462;-61
2022/08/19 01:40:37;;;;;;;11.40;9.83;;;18.50;99.90;;;;;;5000138;28;20465;-59
2022/08/19 01:43:05;;;;;;;10.70;9.60;;;18.50;99.90;;;;;;5015799;28;20430;-59
2022/08/19 01:45:35;;;;;;;10.47;8.87;;;18.50;99.90;;;;;;5015122;28;20540;-59
2022/08/19 01:48:03;;;;;;;10.50;9.20;;;18.50;99.90;;;;;;5014400;28;20544;-59
2022/08/19 01:50:31;;;;;;;14.10;10.03;;;18.50;99.90;;;;;;5014517;28;20458;-59
2022/08/19 01:52:59;;;;;;;12.47;10.13;;;18.50;99.90;;;;;;5015745;28;20436;-59
2022/08/19 01:55:28;;;;;;;12.97;9.13;;;18.40;99.90;;;;;;5013754;28;20493;-59
2022/08/19 01:57:59;;;;;;;12.20;9.70;;;18.40;99.90;;;;;;5008928;28;20468;-59
2022/08/19 02:00:28;;;;;;;10.73;9.60;;;18.40;99.90;;;;;;5012072;28;20962;-59
2022/08/19 02:02:55;;;;;;;9.57;8.57;;;18.40;99.90;;;;;;5014444;28;20544;-58
2022/08/19 02:05:22;;;;;;;9.90;8.43;;;18.40;99.90;;;;;;5014420;28;20461;-58
2022/08/19 02:07:50;;;;;;;12.43;9.50;;;18.30;99.90;;;;;;5013805;28;20462;-57
2022/08/19 02:10:22;;;;;;;14.30;9.00;;;18.30;99.90;;;;;;5014217;28;20461;-59
2022/08/19 02:12:50;;;;;;;11.53;8.90;;;18.30;99.90;;;;;;5014887;28;20458;-58
2022/08/19 02:15:19;;;;;;;12.60;9.50;;;18.30;99.90;;;;;;5014186;28;20848;-59
2022/08/19 02:17:47;;;;;;;14.03;10.07;;;18.30;99.90;;;;;;5013363;28;20550;-59
2022/08/19 02:20:15;;;;;;;10.37;9.20;;;18.30;99.90;;;;;;5013917;28;20942;-58
2022/08/19 02:22:43;;;;;;;11.50;10.10;;;18.30;99.90;;;;;;5014216;28;20561;-58
2022/08/19 02:25:12;;;;;;;15.87;9.57;;;18.30;99.90;;;;;;5013725;28;20454;-60
2022/08/19 02:27:41;;;;;;;10.37;9.37;;;18.30;99.90;;;;;;5013241;28;20472;-58
2022/08/19 02:30:15;;;;;;;12.77;8.77;;;18.30;99.90;;;;;;5012950;28;20553;-59
2022/08/19 02:32:42;;;;;;;10.60;9.50;;;18.30;99.90;;;;;;5014927;28;20453;-58
2022/08/19 02:35:10;;;;;;;8.93;8.00;;;18.30;99.90;;;;;;5013729;28;20493;-58
2022/08/19 02:40:22;;;;;;;10.07;8.63;;;18.40;99.90;;;;;;5014641;28;20453;-58
2022/08/19 02:42:50;;;;;;;14.70;9.57;;;18.30;99.90;;;;;;5013971;28;21036;-60
2022/08/19 02:45:19;;;;;;;11.77;8.33;;;18.30;99.90;;;;;;5013760;28;20458;-59
2022/08/19 02:47:46;;;;;;;9.40;8.23;;;18.40;99.90;;;;;;5012399;28;20547;-60
2022/08/19 02:50:14;;;;;;;10.23;8.03;;;18.40;99.90;;;;;;5012895;28;20468;-58
2022/08/19 02:52:41;;;;;;;10.57;8.00;;;18.40;99.90;;;;;;5053791;22;20555;-57
2022/08/19 02:55:09;;;;;;;12.00;8.30;;;18.40;99.90;;;;;;5032741;28;20920;-58
2022/08/19 02:57:36;;;;;;;10.37;8.13;;;18.30;99.90;;;;;;5031490;28;20899;-59
2022/08/19 03:00:06;;;;;;;10.33;8.17;;;18.30;99.90;;;;;;5034341;28;20471;-58
2022/08/19 03:02:35;;;;;;;9.13;8.13;;;18.30;99.90;;;;;;5032933;28;21760;-58
2022/08/19 03:05:04;;;;;;;8.47;7.67;;;18.30;99.90;;;;;;5034252;28;20548;-58
2022/08/19 03:07:32;;;;;;;10.73;7.80;;;18.40;99.90;;;;;;5032581;28;20981;-59
2022/08/19 03:09:59;;;;;;;10.47;8.37;;;18.30;99.90;;;;;;5033914;28;20441;-58
2022/08/19 03:12:26;;;;;;;9.27;7.23;;;18.30;99.90;;;;;;5033322;28;20484;-58
2022/08/19 03:14:53;;;;;;;13.83;8.40;;;18.30;99.90;;;;;;5032771;28;20524;-59
2022/08/19 03:17:21;;;;;;;11.50;7.40;;;18.30;99.90;;;;;;5032500;28;20472;-59
2022/08/19 03:19:49;;;;;;;11.53;8.27;;;18.30;99.90;;;;;;5033561;28;20475;-58
2022/08/19 03:22:16;;;;;;;8.07;7.23;;;18.20;99.90;;;;;;5032834;28;20564;-57
2022/08/19 03:24:44;;;;;;;8.37;7.57;;;18.20;99.90;;;;;;5033286;28;20543;-58
2022/08/19 03:27:12;;;;;;;9.60;7.10;;;18.20;99.90;;;;;;5032115;28;20460;-57
2022/08/19 03:29:39;;;;;;;12.77;7.83;;;18.20;99.90;;;;;;5033314;28;20480;-59
2022/08/19 03:32:07;;;;;;;9.17;7.57;;;18.20;99.90;;;;;;5032853;28;20488;-58
2022/08/19 03:34:37;;;;;;;9.10;7.83;;;18.20;99.90;;;;;;5033394;28;20552;-58
2022/08/19 03:37:08;;;;;;;10.10;7.37;;;18.20;99.90;;;;;;5031518;28;20485;-58
2022/08/19 03:39:37;;;;;;;9.10;7.27;;;18.20;99.90;;;;;;5032706;28;20514;-58
2022/08/19 03:42:05;;;;;;;9.03;8.10;;;18.20;99.90;;;;;;5032113;28;20525;-59
2022/08/19 03:44:33;;;;;;;11.93;8.33;;;18.20;99.90;;;;;;5033087;28;20472;-58
2022/08/19 03:47:01;;;;;;;11.20;7.40;;;18.10;99.90;;;;;;5032342;28;20461;-57
2022/08/19 03:49:30;;;;;;;9.40;8.40;;;18.10;99.90;;;;;;5032566;28;20552;-58
2022/08/19 03:52:00;;;;;;;11.57;7.47;;;18.10;99.90;;;;;;5032251;28;21030;-58
2022/08/19 03:54:29;;;;;;;8.77;7.73;;;18.10;99.90;;;;;;5031669;28;20475;-58
2022/08/19 03:56:57;;;;;;;13.20;8.00;;;18.00;99.90;;;;;;5032777;28;21058;-58
2022/08/19 03:59:29;;;;;;;9.40;8.40;;;18.00;99.90;;;;;;5030651;28;20548;-60
2022/08/19 04:01:58;;;;;;;9.70;8.00;;;18.00;99.90;;;;;;5025459;28;21075;-56
2022/08/19 04:04:26;;;;;;;10.43;7.60;;;18.00;99.90;;;;;;5032454;28;21012;-56
2022/08/19 04:10:08;;;;;;;10.13;7.47;;;17.90;99.90;;;;;;5110958;27;20574;-59
2022/08/19 04:12:36;;;;;;;9.57;7.73;;;17.80;99.90;;;;;;5097771;28;20486;-59
2022/08/19 04:15:05;;;;;;;8.70;7.80;;;17.80;99.90;;;;;;5104995;28;20488;-59
2022/08/19 04:17:33;;;;;;;15.43;8.87;;;17.80;99.90;;;;;;5110281;28;20491;-58
2022/08/19 04:20:01;;;;;;;14.23;8.70;;;17.80;99.90;;;;;;5110280;28;20476;-60
2022/08/19 04:22:28;;;;;;;15.60;8.70;;;17.70;99.90;;;;;;5098437;28;20664;-59
2022/08/19 04:24:55;;;;;;;10.57;7.60;;;17.70;99.90;;;;;;5090116;28;20962;-58
2022/08/19 04:27:24;;;;;;;10.57;8.63;;;17.70;99.90;;;;;;5109962;28;20548;-59
2022/08/19 04:29:52;;;;;;;12.00;8.63;;;17.70;99.90;;;;;;5108601;28;20480;-57
2022/08/19 04:32:19;;;;;;;9.97;7.77;;;17.70;99.90;;;;;;5087582;28;20478;-58
2022/08/19 04:34:46;;;;;;;13.13;9.10;;;17.70;99.90;;;;;;5089378;28;20550;-59
2022/08/19 04:37:13;;;;;;;11.17;8.63;;;17.60;99.90;;;;;;5107100;28;20803;-58
2022/08/19 04:42:41;;;;;;;11.67;8.83;;;17.60;99.90;;;;;;5019048;28;20461;-58
2022/08/19 04:45:12;;;;;;;12.07;9.70;;;17.60;99.90;;;;;;5111677;28;20429;-59
2022/08/19 04:47:41;;;;;;;9.43;8.33;;;17.60;99.90;;;;;;5090883;28;20465;-59
2022/08/19 04:50:11;;;;;;;10.87;9.30;;;17.60;99.90;;;;;;5111745;28;20568;-58
2022/08/19 04:52:41;;;;;;;11.30;9.07;;;17.60;99.90;;;;;;5111291;28;20472;-57
2022/08/19 04:55:10;;;;;;;16.10;9.40;;;17.60;99.90;;;;;;5110936;28;20797;-59
2022/08/19 04:57:39;;;;;;;14.10;9.67;;;17.60;99.90;;;;;;5110877;28;20539;-59
2022/08/19 05:00:09;;;;;;;10.27;8.07;;;17.60;99.90;;;;;;5107943;28;21029;-58
2022/08/19 05:02:36;;;;;;;10.13;9.13;;;17.60;99.90;;;;;;5109727;28;20849;-58
2022/08/19 05:05:03;;;;;;;14.03;8.80;;;17.60;99.90;;;;;;5110430;28;20468;-59
2022/08/19 05:07:30;;;;;;;11.13;8.90;;;17.60;99.90;;;;;;5109850;28;20973;-59
2022/08/19 05:09:58;;;;;;;8.97;7.83;;;17.60;99.90;;;;;;5108302;28;20484;-59
2022/08/19 05:12:26;;;;;;;12.37;8.60;;;17.60;99.90;;;;;;5093222;28;20485;-60
2022/08/19 05:14:56;;;;;;;11.10;8.90;;;17.70;99.90;;;;;;5088953;28;20450;-60
2022/08/19 05:17:23;;;;;;;10.00;8.00;;;17.70;99.90;;;;;;5089688;28;20474;-58
2022/08/19 05:22:36;;;;;;;10.07;8.60;;;17.70;99.90;;;;;;5075978;28;20458;-58
2022/08/19 05:25:06;;;;;;;9.50;7.67;;;17.70;99.90;;;;;;5076184;28;20526;-57
2022/08/19 05:27:34;;;;;;;9.40;8.50;;;17.70;99.90;;;;;;5076909;28;20952;-58
2022/08/19 05:30:04;;;;;;;11.70;8.70;;;17.80;99.90;;;;;;5076224;28;20478;-58
2022/08/19 05:32:31;;;;;;;10.63;8.97;;;17.80;99.90;;;;;;5065393;28;20524;-59
2022/08/19 05:34:59;;;;;;;16.70;10.00;;;17.80;99.90;;;;;;5067108;28;20783;-57
2022/08/19 05:37:27;;;;;;;10.07;8.97;;;17.90;99.90;;;;;;5076097;28;20454;-57
2022/08/19 05:39:55;;;;;;;9.60;8.40;;;17.80;99.90;;;;;;5076546;28;20440;-57
2022/08/19 05:42:23;;;;;;;11.03;8.13;;;17.80;99.90;;;;;;5076411;28;20545;-58
2022/08/19 05:44:52;;;;;;;9.60;8.60;;;17.90;99.90;;;;;;5075783;28;20451;-56
2022/08/19 05:47:21;;;;;;;11.23;9.27;;;17.90;99.90;;;;;;5075463;28;20452;-58
2022/08/19 05:49:49;;;;;;;15.93;10.27;;;17.90;99.90;;;;;;5075433;28;20559;-57
2022/08/19 05:52:17;;;;;;;14.33;9.60;;;17.90;99.90;;;;;;5075401;28;20475;-57
2022/08/19 05:54:47;;;;;;;12.67;9.80;;;17.90;99.90;;;;;;5075809;28;20497;-57
2022/08/19 05:57:15;;;;;;;13.17;9.90;;;17.90;99.90;;;;;;5075469;28;20438;-57
2022/08/19 05:59:43;;;;;;;15.03;11.47;;;17.90;99.90;;;;;;5081883;28;20908;-57
2022/08/19 06:02:11;;;;;;;14.67;11.40;;;18.00;99.90;;;;;;5087409;28;20459;-59
2022/08/19 06:04:42;;;;;;;15.73;11.03;;;18.00;99.90;;;;;;5088393;28;20493;-57
2022/08/19 06:07:10;;;;;;;17.47;12.83;;;18.00;99.90;;;;;;5086497;28;20439;-57
2022/08/19 06:09:37;;;;;;;18.20;11.83;;;18.10;99.90;;;;;;5085635;28;20487;-58
2022/08/19 06:12:05;;;;;;;18.17;12.47;;;18.10;99.90;;;;;;5077059;28;20468;-58
2022/08/19 06:14:35;;;;;;;15.47;12.03;;;18.20;99.90;;;;;;5075994;28;20942;-59
2022/08/19 06:17:03;;;;;;;16.03;12.00;;;18.20;99.90;;;;;;5075918;28;21007;-59
2022/08/19 06:19:31;;;;;;;16.70;12.63;;;18.30;99.90;;;;;;5074106;28;20494;-59
2022/08/19 06:22:01;;;;;;;15.83;11.90;;;18.30;99.90;;;;;;5073907;28;20573;-60
2022/08/19 06:24:31;;;;;;;17.97;12.90;;;18.40;99.90;;;;;;5075773;28;20478;-58
2022/08/19 06:27:00;;;;;;;15.47;11.93;;;18.40;99.90;;;;;;5073233;28;20466;-58
2022/08/19 06:29:29;;;;;;;16.80;13.13;;;18.40;99.90;;;;;;5069225;28;20526;-60
2022/08/19 06:31:59;;;;;;;19.00;12.63;;;18.40;99.90;;;;;;5072384;28;20544;-60
2022/08/19 06:34:28;;;;;;;19.73;13.73;;;18.50;99.90;;;;;;5079934;28;20508;-62
2022/08/19 06:36:57;;;;;;;21.47;14.77;;;18.40;99.90;;;;;;5065123;28;20517;-57
2022/08/19 06:39:27;;;;;;;17.77;13.90;;;18.40;99.90;;;;;;5094189;28;20434;-59
2022/08/19 06:41:57;;;;;;;17.37;14.13;;;18.50;99.90;;;;;;5079390;28;20485;-60
2022/08/19 06:44:26;;;;;;;17.00;14.07;;;18.50;99.90;;;;;;5093410;28;20541;-58
2022/08/19 06:46:54;;;;;;;17.40;13.87;;;18.50;99.90;;;;;;5078683;28;20487;-61
2022/08/19 06:49:22;;;;;;;18.57;14.40;;;18.50;99.90;;;;;;5087601;28;20474;-59
2022/08/19 06:51:50;;;;;;;17.73;12.90;;;18.60;99.90;;;;;;5093049;28;20482;-59
2022/08/19 06:54:19;;;;;;;12.40;11.10;;;18.60;99.90;;;;;;5093411;28;20527;-58
2022/08/19 06:56:48;;;;;;;15.23;11.67;;;18.70;99.90;;;;;;5090623;28;20902;-58
2022/08/19 06:59:19;;;;;;;14.83;11.93;;;18.70;99.90;;;;;;5093000;28;20524;-59
2022/08/19 07:01:48;;;;;;;14.33;10.67;;;18.70;99.90;;;;;;5083714;28;20566;-59
2022/08/19 07:04:17;;;;;;;14.57;12.07;;;18.70;99.90;;;;;;5081690;28;20553;-59
2022/08/19 07:06:45;;;;;;;15.50;12.70;;;18.80;99.90;;;;;;5078336;28;20542;-57
2022/08/19 07:09:15;;;;;;;14.53;12.30;;;18.80;99.90;;;;;;5094065;28;20482;-61
2022/08/19 07:11:48;;;;;;;18.50;13.43;;;18.80;99.90;;;;;;5088196;28;20570;-61
2022/08/19 07:14:18;;;;;;;14.73;12.57;;;18.80;99.90;;;;;;5073063;28;20460;-61
2022/08/19 07:16:46;;;;;;;16.40;12.77;;;18.80;99.90;;;;;;5091052;28;20556;-61
2022/08/19 07:19:15;;;;;;;16.60;13.30;;;18.80;99.90;;;;;;5080456;28;20539;-60
2022/08/19 07:21:43;;;;;;;20.03;14.03;;;18.90;99.90;;;;;;5090761;28;20523;-59
2022/08/19 07:24:12;;;;;;;18.07;14.57;;;18.90;99.90;;;;;;5094669;28;20960;-60
2022/08/19 07:26:41;;;;;;;18.60;14.67;;;18.90;99.90;;;;;;5075119;28;20458;-58
2022/08/19 07:29:12;;;;;;;18.80;14.77;;;19.10;99.90;;;;;;5059999;28;20474;-59
2022/08/19 07:31:40;;;;;;;22.17;16.60;;;19.20;99.90;;;;;;5073939;28;20494;-61
2022/08/19 07:34:13;;;;;;;15.63;13.87;;;19.40;99.90;;;;;;5073653;28;20459;-61
2022/08/19 07:36:42;;;;;;;19.70;15.37;;;19.40;99.90;;;;;;5071498;28;20483;-60
2022/08/19 07:39:12;;;;;;;19.37;14.93;;;19.60;99.90;;;;;;5073565;28;20447;-60
2022/08/19 07:41:40;;;;;;;20.57;16.47;;;19.60;99.90;;;;;;5074228;28;20574;-61
2022/08/19 07:44:10;;;;;;;20.10;14.70;;;19.70;99.90;;;;;;5093228;28;20836;-60
2022/08/19 07:46:39;;;;;;;17.67;15.60;;;19.70;99.90;;;;;;5092500;28;20511;-60
2022/08/19 07:49:07;;;;;;;19.50;17.33;;;19.70;99.90;;;;;;5091305;28;20518;-60
2022/08/19 07:51:36;;;;;;;21.10;17.60;;;19.80;99.90;;;;;;5081776;28;20918;-59
2022/08/19 07:54:04;;;;;;;19.30;16.27;;;19.80;99.90;;;;;;5059919;28;20589;-61
2022/08/19 07:56:31;;;;;;;18.13;14.80;;;19.90;99.90;;;;;;5093750;28;20554;-60
2022/08/19 07:58:59;;;;;;;20.90;16.90;;;20.00;99.90;;;;;;5080778;28;20463;-64
2022/08/19 08:01:28;;;;;;;18.20;15.00;;;20.20;99.90;;;;;;5086131;28;20557;-59
2022/08/19 08:09:41;;;;;;;15.03;11.13;;;20.30;98.50;;;;;;5029938;28;20461;-60
2022/08/19 08:12:12;;;;;;;15.20;12.47;;;20.20;98.30;;;;;;5039989;28;20463;-59
2022/08/19 08:14:42;;;;;;;14.60;12.03;;;20.20;98.30;;;;;;5052864;28;20446;-60
2022/08/19 08:17:12;;;;;;;11.93;10.60;;;20.30;98.20;;;;;;5052428;28;20440;-61
2022/08/19 08:19:40;;;;;;;12.93;11.57;;;20.40;98.00;;;;;;5051868;28;20506;-64
2022/08/19 08:23:21;;;;;;;13.03;11.23;;;20.50;97.50;;;;;;5061227;28;20549;-61
2022/08/19 08:24:58;;;;;;;16.53;10.27;;;20.50;97.10;;;;;;5080319;28;20455;-59
2022/08/19 08:27:25;;;;;;;12.73;11.27;;;20.50;96.70;;;;;;5072683;28;20440;-59
2022/08/19 08:29:52;;;;;;;11.00;9.87;;;20.60;96.40;;;;;;5072883;28;20480;-59
2022/08/19 08:32:21;;;;;;;9.90;9.00;;;20.80;95.90;;;;;;5072468;28;20460;-58
2022/08/19 08:34:48;;;;;;;10.80;8.50;;;21.00;95.00;;;;;;5072631;28;20444;-59
2022/08/19 08:37:15;;;;;;;12.23;8.87;;;21.20;94.40;;;;;;5071329;28;20554;-60
2022/08/19 08:39:43;;;;;;;9.87;8.47;;;21.30;93.30;;;;;;5072283;28;20514;-60
2022/08/19 08:42:17;;;;;;;8.73;7.60;;;21.30;92.50;;;;;;5072788;28;20918;-60
2022/08/19 08:44:50;;;;;;;10.43;8.27;;;21.30;91.80;;;;;;5071778;28;20434;-61
2022/08/19 08:47:23;;;;;;;8.80;8.00;;;21.10;91.30;;;;;;5071309;28;20851;-61
2022/08/19 08:49:53;;;;;;;9.00;8.10;;;21.10;91.50;;;;;;5068496;28;20523;-58
2022/08/19 08:52:25;;;;;;;10.93;9.00;;;21.10;91.50;;;;;;5072570;28;20476;-59
2022/08/19 08:54:56;;;;;;;10.83;9.73;;;21.10;91.50;;;;;;5073003;28;20528;-59
2022/08/19 08:57:28;;;;;;;10.47;9.27;;;21.10;91.40;;;;;;5075385;28;20470;-60
2022/08/19 08:59:59;;;;;;;9.90;7.77;;;21.20;91.20;;;;;;5075935;28;20438;-59
2022/08/19 09:02:28;;;;;;;8.90;8.10;;;21.30;90.90;;;;;;5076240;28;20547;-60
2022/08/19 09:04:56;;;;;;;12.03;8.83;;;21.50;90.30;;;;;;5075780;28;20457;-60
2022/08/19 09:07:32;;;;;;;8.20;7.43;;;21.80;89.80;;;;;;5076403;28;20460;-60
2022/08/19 09:10:09;;;;;;;8.53;7.13;;;22.10;87.30;;;;;;5089790;28;20520;-61
2022/08/19 09:12:44;;;;;;;8.47;7.00;;;22.30;84.60;;;;;;5095019;28;20553;-61
2022/08/19 09:15:14;;;;;;;10.87;8.33;;;22.40;83.00;;;;;;5079889;28;20548;-60
2022/08/19 09:17:44;;;;;;;8.03;6.73;;;22.50;82.00;;;;;;5090370;28;20559;-60
2022/08/19 09:20:18;;;;;;;9.80;7.27;;;22.60;81.10;;;;;;5098268;28;20514;-61
2022/08/19 09:22:46;;;;;;;8.50;7.30;;;22.70;80.50;;;;;;5088052;28;20853;-60
2022/08/19 09:25:17;;;;;;;7.90;7.20;;;22.70;79.60;;;;;;5075661;28;20535;-59
2022/08/19 09:27:44;;;;;;;8.93;8.13;;;22.70;79.20;;;;;;5075452;28;20431;-60
2022/08/19 09:30:16;;;;;;;8.10;7.40;;;22.70;78.70;;;;;;5074472;28;20570;-59
2022/08/19 09:32:45;;;;;;;7.83;6.90;;;22.80;78.30;;;;;;5073846;28;20918;-58
2022/08/19 09:35:14;;;;;;;9.13;6.13;;;22.80;77.90;;;;;;5075735;28;20525;-59
2022/08/19 09:37:42;;;;;;;11.27;7.00;;;22.90;77.00;;;;;;5079990;28;21017;-59
2022/08/19 09:40:11;;;;;;;8.80;7.90;;;23.00;76.50;;;;;;5093406;28;20457;-58
2022/08/19 09:42:38;;;;;;;7.37;6.63;;;23.10;76.00;;;;;;5094955;28;20485;-58
2022/08/19 09:45:06;;;;;;;7.03;5.90;;;23.10;74.80;;;;;;5096171;28;20495;-60
2022/08/19 09:47:35;;;;;;;5.53;5.00;;;23.20;73.80;;;;;;5095755;28;20452;-56
2022/08/19 09:50:05;;;;;;;10.87;5.50;;;23.30;73.40;;;;;;5094839;28;20482;-59
2022/08/19 09:52:32;;;;;;;6.13;5.53;;;23.40;72.30;;;;;;5090956;28;20962;-58
2022/08/19 09:55:00;;;;;;;7.40;6.70;;;23.50;70.70;;;;;;5086871;28;20911;-61
2022/08/19 09:57:27;;;;;;;6.67;5.97;;;23.50;69.80;;;;;;5095305;28;20466;-61
2022/08/19 09:59:54;;;;;;;5.23;4.77;;;23.50;69.50;;;;;;5095548;28;20514;-59
2022/08/19 10:02:21;;;;;;;5.67;5.23;;;23.50;69.30;;;;;;5095384;28;20481;-60
2022/08/19 10:07:35;;;;;;;5.63;5.13;;;23.60;68.40;;;;;;5096500;28;20480;-61
2022/08/19 10:10:02;;;;;;;5.57;4.90;;;23.60;68.00;;;;;;5095428;28;20484;-59
2022/08/19 10:12:29;;;;;;;5.70;4.80;;;23.70;67.50;;;;;;5095639;28;20470;-59
2022/08/19 10:14:57;;;;;;;7.77;5.43;;;23.60;67.10;;;;;;5095301;28;20460;-61
2022/08/19 10:17:25;;;;;;;7.90;5.07;;;23.50;67.20;;;;;;5096159;28;20873;-60
2022/08/19 10:19:52;;;;;;;5.40;4.80;;;23.40;67.20;;;;;;5097180;28;20918;-61
2022/08/19 10:22:20;;;;;;;10.33;5.70;;;23.50;66.60;;;;;;5098092;28;20524;-61
2022/08/19 10:24:49;;;;;;;7.63;5.70;;;23.60;65.90;;;;;;5096587;28;20494;-60
2022/08/19 10:27:16;;;;;;;5.00;4.60;;;23.80;65.60;;;;;;5094851;28;20452;-60
2022/08/19 10:29:43;;;;;;;6.27;4.17;;;23.90;65.10;;;;;;5094941;28;20495;-58
2022/08/19 10:32:11;;;;;;;5.43;4.40;;;24.00;64.40;;;;;;5095063;28;20536;-61
2022/08/19 10:34:39;;;;;;;6.80;4.10;;;24.00;63.60;;;;;;5095011;28;20474;-60
2022/08/19 10:37:07;;;;;;;4.73;4.00;;;24.10;63.50;;;;;;5094623;28;20531;-61
2022/08/19 10:39:35;;;;;;;4.70;3.70;;;24.20;63.10;;;;;;5095374;28;20533;-60
2022/08/19 10:42:10;;;;;;;4.40;3.93;;;24.40;62.40;;;;;;5094855;28;20546;-60
2022/08/19 10:44:38;;;;;;;4.20;3.80;;;24.60;61.00;;;;;;5094813;28;20469;-59
2022/08/19 10:47:05;;;;;;;3.97;3.57;;;24.70;60.10;;;;;;5095287;28;20524;-58
2022/08/19 10:52:32;;;;;;;5.77;3.93;;;24.90;59.70;;;;;;5094793;28;20616;-61
2022/08/19 10:52:34;;;;;;;4.10;3.40;;;25.00;58.50;;;;;;5094042;28;20443;-60
2022/08/19 10:57:47;;;;;;;5.80;3.77;;;25.10;56.60;;;;;;5094138;28;20785;-60
2022/08/19 11:00:15;;;;;;;3.47;3.17;;;25.10;56.10;;;;;;5094485;28;20436;-59
2022/08/19 11:02:42;;;;;;;3.67;3.07;;;25.00;55.90;;;;;;5094335;28;20461;-61
2022/08/19 11:05:10;;;;;;;2.73;2.50;;;25.00;56.00;;;;;;5094777;28;20449;-61
2022/08/19 11:07:38;;;;;;;3.50;3.20;;;25.00;55.70;;;;;;5093885;28;20931;-60
2022/08/19 11:10:07;;;;;;;3.83;3.40;;;25.10;55.50;;;;;;5094389;28;20447;-60
2022/08/19 11:12:38;;;;;;;4.23;3.60;;;25.20;55.10;;;;;;5094865;28;20555;-59
2022/08/19 11:15:10;;;;;;;9.10;3.87;;;25.20;54.50;;;;;;5094405;28;20434;-60
2022/08/19 11:17:43;;;;;;;3.90;3.60;;;25.10;54.20;;;;;;5093208;28;20490;-60
2022/08/19 11:20:12;;;;;;;3.07;2.77;;;25.10;54.10;;;;;;5093714;28;20422;-60
2022/08/19 11:22:39;;;;;;;2.90;2.70;;;25.20;54.20;;;;;;5093792;28;20562;-60
2022/08/19 11:25:08;;;;;;;3.07;2.50;;;25.40;53.40;;;;;;5093707;28;20549;-59
2022/08/19 11:27:41;;;;;;;2.53;2.33;;;25.40;53.20;;;;;;5093734;28;20477;-61
2022/08/19 11:30:12;;;;;;;2.97;2.77;;;25.50;53.00;;;;;;5094182;28;20458;-61
2022/08/19 11:32:40;;;;;;;4.20;3.10;;;25.60;53.50;;;;;;5093771;28;20832;-59
2022/08/19 11:35:08;;;;;;;2.70;2.50;;;25.70;52.80;;;;;;5093494;28;20965;-59
2022/08/19 11:37:36;;;;;;;3.20;2.90;;;25.70;52.50;;;;;;5093223;28;20539;-58
2022/08/19 11:40:06;;;;;;;3.87;3.30;;;25.70;52.20;;;;;;5093212;28;20453;-60
2022/08/19 11:45:19;;;;;;;5.73;2.80;;;25.70;52.40;;;;;;5093443;28;20448;-60
2022/08/19 11:47:48;;;;;;;3.80;3.07;;;25.70;52.70;;;;;;5093617;28;20544;-60
2022/08/19 11:50:16;;;;;;;5.03;3.23;;;25.80;52.20;;;;;;5093481;28;20551;-59
2022/08/19 11:52:43;;;;;;;3.20;2.90;;;25.90;51.90;;;;;;5093284;28;20464;-59
2022/08/19 11:55:11;;;;;;;2.87;2.67;;;26.10;51.50;;;;;;5093168;28;20443;-61
2022/08/19 11:57:38;;;;;;;3.23;2.70;;;26.50;50.80;;;;;;5092671;28;20957;-60
2022/08/19 12:00:07;;;;;;;3.17;2.50;;;26.90;49.90;;;;;;5093055;28;20572;-60
2022/08/19 12:02:36;;;;;;;3.40;2.80;;;27.30;48.90;;;;;;5093108;28;20534;-60
2022/08/19 12:05:04;;;;;;;3.80;2.50;;;27.40;47.90;;;;;;5093830;28;20551;-60
2022/08/19 12:07:32;;;;;;;3.17;2.70;;;27.70;47.60;;;;;;5092453;28;20909;-61
2022/08/19 12:10:00;;;;;;;3.83;2.93;;;28.10;46.80;;;;;;5092302;28;20527;-62
2022/08/19 12:12:28;;;;;;;2.90;2.70;;;28.40;46.00;;;;;;5092852;28;20913;-60
2022/08/19 12:14:58;;;;;;;3.70;2.60;;;28.60;45.50;;;;;;5092381;28;20548;-59
2022/08/19 12:17:26;;;;;;;3.00;2.57;;;28.90;45.10;;;;;;5092725;28;20772;-60
2022/08/19 12:19:55;;;;;;;3.93;2.97;;;29.10;44.50;;;;;;5092425;28;20474;-61
2022/08/19 12:22:22;;;;;;;3.53;3.23;;;29.20;44.10;;;;;;5092752;28;20465;-61
2022/08/19 12:24:52;;;;;;;5.77;3.67;;;29.20;43.90;;;;;;5092761;28;20619;-58
2022/08/19 12:27:19;;;;;;;3.80;3.07;;;29.00;44.10;;;;;;5092609;28;20452;-60
2022/08/19 12:29:46;;;;;;;2.80;2.53;;;28.70;44.60;;;;;;5093686;28;20520;-60
2022/08/19 12:32:13;;;;;;;7.23;2.47;;;28.30;45.30;;;;;;5096529;28;20484;-59
2022/08/19 12:34:42;;;;;;;5.53;2.67;;;27.90;46.10;;;;;;5096959;28;20453;-60
2022/08/19 12:37:10;;;;;;;5.53;3.20;;;27.50;47.40;;;;;;5096737;28;20924;-62
2022/08/19 12:39:41;;;;;;;2.60;2.40;;;27.20;47.30;;;;;;5096361;28;20474;-60
2022/08/19 12:42:08;;;;;;;2.40;2.20;;;26.90;47.80;;;;;;5096979;28;20512;-59
2022/08/19 12:44:36;;;;;;;3.27;2.87;;;26.90;48.10;;;;;;5096418;28;20962;-61
2022/08/19 12:47:04;;;;;;;2.37;2.17;;;26.90;48.20;;;;;;5096381;28;21036;-60
2022/08/19 12:49:33;;;;;;;2.20;2.00;;;26.90;48.00;;;;;;5096647;28;20776;-61
2022/08/19 12:52:00;;;;;;;3.50;2.57;;;26.90;47.70;;;;;;5097414;28;20489;-60
2022/08/19 12:54:30;;;;;;;5.87;3.30;;;26.90;47.50;;;;;;5097049;28;20442;-59
2022/08/19 12:56:57;;;;;;;3.50;3.20;;;26.90;47.60;;;;;;5096713;28;20503;-61
2022/08/19 12:59:25;;;;;;;3.77;2.90;;;26.90;47.90;;;;;;5096474;28;20458;-60
2022/08/19 13:01:52;;;;;;;3.07;2.37;;;26.90;48.50;;;;;;5096389;28;20542;-60
2022/08/19 13:04:20;;;;;;;2.70;2.20;;;26.80;47.70;;;;;;5096980;28;20526;-59
2022/08/19 13:06:47;;;;;;;3.43;2.47;;;26.70;47.10;;;;;;5096641;28;20441;-60
2022/08/19 13:09:14;;;;;;;3.10;2.40;;;26.70;47.00;;;;;;5097076;28;20558;-60
2022/08/19 13:11:43;;;;;;;2.67;2.20;;;26.80;46.90;;;;;;5097029;28;20905;-61
2022/08/19 13:14:11;;;;;;;2.83;2.53;;;26.80;46.60;;;;;;5096421;28;20951;-60